createdAt,value
2017-06-20T00:01:41.008Z,9.53
2017-06-20T00:04:07.323Z,7.77
2017-06-20T00:06:33.653Z,6.60
2017-06-20T00:08:59.968Z,8.60
2017-06-20T00:11:26.258Z,7.80
2017-06-20T00:13:52.820Z,5.83
2017-06-20T00:16:19.866Z,9.97
2017-06-20T00:18:46.913Z,8.50
2017-06-20T00:21:13.217Z,7.40
2017-06-20T00:23:39.506Z,6.97
2017-06-20T00:26:06.092Z,8.80
2017-06-20T00:28:32.410Z,10.63
2017-06-20T00:30:58.730Z,7.83
2017-06-20T00:33:25.053Z,13.43
2017-06-20T00:35:51.333Z,9.33
2017-06-20T00:38:18.611Z,9.30
2017-06-20T00:40:44.910Z,9.00
2017-06-20T00:43:12.114Z,7.33
2017-06-20T00:45:39.395Z,13.80
2017-06-20T00:48:05.715Z,10.77
2017-06-20T00:50:32.262Z,7.03
2017-06-20T00:52:58.553Z,9.10
2017-06-20T00:55:24.866Z,7.10
2017-06-20T00:57:51.181Z,7.87
2017-06-20T01:00:17.473Z,10.67
2017-06-20T01:02:44.041Z,10.67
2017-06-20T01:05:10.373Z,10.03
2017-06-20T01:07:36.681Z,10.70
2017-06-20T01:10:03.001Z,15.87
2017-06-20T01:12:29.280Z,9.73
2017-06-20T01:14:55.803Z,13.83
2017-06-20T01:17:22.100Z,15.70
2017-06-20T01:19:48.449Z,9.83
2017-06-20T01:22:15.504Z,10.27
2017-06-20T01:24:41.810Z,13.20
2017-06-20T01:27:08.346Z,10.13
2017-06-20T01:29:34.649Z,11.10
2017-06-20T01:32:00.995Z,8.50
2017-06-20T01:34:27.343Z,15.10
2017-06-20T01:36:54.426Z,13.40
2017-06-20T01:39:21.116Z,10.40
2017-06-20T01:41:47.466Z,16.83
2017-06-20T01:44:13.802Z,13.90
2017-06-20T01:46:40.158Z,10.90
2017-06-20T01:49:06.489Z,14.07
2017-06-20T01:51:33.167Z,10.50
2017-06-20T01:53:59.485Z,17.57
2017-06-20T01:56:25.818Z,11.90
2017-06-20T01:58:52.160Z,11.60
2017-06-20T02:01:18.544Z,17.13
2017-06-20T02:03:45.102Z,15.97
2017-06-20T02:06:11.467Z,13.40
2017-06-20T02:08:37.797Z,10.17
2017-06-20T02:11:04.166Z,11.47
2017-06-20T02:13:30.496Z,10.73
2017-06-20T02:15:57.113Z,13.00
2017-06-20T02:18:24.172Z,11.67
2017-06-20T02:20:51.249Z,16.67
2017-06-20T02:23:18.354Z,13.93
2017-06-20T02:25:44.774Z,14.57
2017-06-20T02:28:11.335Z,18.27
2017-06-20T02:30:37.711Z,13.40
2017-06-20T02:33:04.021Z,12.57
2017-06-20T02:35:30.332Z,10.40
2017-06-20T02:37:57.404Z,9.97
2017-06-20T02:40:23.941Z,12.67
2017-06-20T02:42:50.259Z,10.70
2017-06-20T02:45:16.567Z,9.30
2017-06-20T02:47:43.637Z,10.90
2017-06-20T02:50:10.377Z,11.37
2017-06-20T02:52:36.669Z,10.40
2017-06-20T02:55:02.997Z,9.40
2017-06-20T02:57:29.293Z,10.93
2017-06-20T02:59:55.638Z,14.23
2017-06-20T03:02:22.164Z,18.67
2017-06-20T03:04:48.505Z,12.40
2017-06-20T03:07:14.807Z,17.83
2017-06-20T03:09:41.433Z,15.03
2017-06-20T03:12:07.754Z,12.97
2017-06-20T03:14:34.046Z,13.00
2017-06-20T03:17:00.377Z,14.17
2017-06-20T03:19:26.687Z,12.90
2017-06-20T03:21:53.330Z,9.60
2017-06-20T03:24:19.617Z,15.50
2017-06-20T03:26:45.921Z,20.37
2017-06-20T03:29:12.985Z,13.67
2017-06-20T03:31:39.345Z,16.13
2017-06-20T03:34:05.895Z,12.67
2017-06-20T03:36:32.251Z,27.13
2017-06-20T03:38:58.547Z,16.60
2017-06-20T03:41:24.879Z,20.57
2017-06-20T03:43:51.213Z,13.57
2017-06-20T03:46:17.861Z,15.43
2017-06-20T03:48:44.176Z,14.00
2017-06-20T03:51:10.470Z,18.30
2017-06-20T03:53:36.775Z,13.80
2017-06-20T03:56:03.082Z,13.07
2017-06-20T03:58:29.674Z,11.90
2017-06-20T04:00:55.968Z,18.13
2017-06-20T04:03:22.252Z,15.00
2017-06-20T04:05:48.572Z,14.70
2017-06-20T04:08:14.894Z,11.70
2017-06-20T04:10:41.581Z,16.30
2017-06-20T04:13:07.900Z,16.67
2017-06-20T04:15:34.214Z,16.33
2017-06-20T04:18:00.533Z,17.70
2017-06-20T04:20:26.867Z,21.53
2017-06-20T04:22:53.184Z,16.90
2017-06-20T04:25:19.493Z,18.83
2017-06-20T04:27:46.191Z,16.03
2017-06-20T04:30:12.488Z,17.70
2017-06-20T04:32:38.807Z,15.77
2017-06-20T04:35:05.171Z,16.60
2017-06-20T04:37:31.462Z,12.93
2017-06-20T04:39:58.799Z,15.87
2017-06-20T04:42:25.107Z,13.50
2017-06-20T04:44:51.402Z,15.27
2017-06-20T04:47:17.707Z,16.17
2017-06-20T04:49:44.029Z,14.20
2017-06-20T04:52:10.844Z,21.20
2017-06-20T04:54:37.124Z,16.70
2017-06-20T04:57:03.405Z,15.23
2017-06-20T04:59:29.733Z,15.27
2017-06-20T05:01:56.029Z,14.00
2017-06-20T05:04:22.584Z,16.70
2017-06-20T05:06:48.913Z,11.80
2017-06-20T05:09:15.233Z,11.77
2017-06-20T05:11:41.574Z,18.50
2017-06-20T05:14:07.883Z,17.33
2017-06-20T05:16:34.491Z,14.77
2017-06-20T05:19:00.772Z,19.87
2017-06-20T05:21:27.092Z,14.33
2017-06-20T05:23:53.442Z,16.87
2017-06-20T05:26:19.757Z,15.00
2017-06-20T05:28:46.343Z,16.20
2017-06-20T05:31:13.443Z,15.10
2017-06-20T05:33:39.781Z,13.70
2017-06-20T05:36:06.098Z,17.37
2017-06-20T05:38:32.396Z,17.67
2017-06-20T05:40:59.086Z,15.23
2017-06-20T05:43:25.383Z,16.70
2017-06-20T05:45:51.691Z,14.87
2017-06-20T05:48:18.020Z,18.73
2017-06-20T05:50:44.335Z,12.60
2017-06-20T05:53:10.988Z,15.33
2017-06-20T05:55:37.301Z,15.50
2017-06-20T05:58:03.628Z,21.57
2017-06-20T06:00:29.970Z,15.40
2017-06-20T06:02:56.296Z,14.30
2017-06-20T06:05:23.719Z,16.53
2017-06-20T06:07:50.032Z,18.63
2017-06-20T06:10:16.353Z,24.13
2017-06-20T06:12:42.680Z,10.60
2017-06-20T06:15:08.978Z,14.73
2017-06-20T06:17:36.326Z,15.73
2017-06-20T06:20:03.369Z,19.30
2017-06-20T06:22:29.722Z,13.87
2017-06-20T06:24:56.480Z,24.07
2017-06-20T06:27:22.900Z,16.17
2017-06-20T06:29:49.520Z,10.90
2017-06-20T06:32:15.861Z,12.43
2017-06-20T06:34:42.954Z,11.53
2017-06-20T06:37:09.329Z,16.87
2017-06-20T06:39:35.701Z,10.90
2017-06-20T06:42:02.331Z,22.83
2017-06-20T06:44:28.666Z,12.33
2017-06-20T06:46:55.013Z,13.33
2017-06-20T06:49:21.361Z,13.50
2017-06-20T06:51:47.805Z,11.73
2017-06-20T06:54:14.551Z,13.57
2017-06-20T06:56:40.857Z,13.17
2017-06-20T06:59:07.216Z,9.40
2017-06-20T07:01:33.559Z,12.77
2017-06-20T07:03:59.921Z,10.60
2017-06-20T07:06:26.619Z,9.93
2017-06-20T07:08:53.773Z,13.63
2017-06-20T07:11:20.171Z,13.00
2017-06-20T07:13:46.544Z,14.57
2017-06-20T07:16:12.903Z,12.00
2017-06-20T07:18:39.223Z,12.87
2017-06-20T07:21:05.814Z,14.40
2017-06-20T07:23:32.142Z,9.03
2017-06-20T07:25:59.253Z,9.23
2017-06-20T07:28:25.907Z,10.10
2017-06-20T07:30:52.248Z,9.67
2017-06-20T07:33:18.643Z,10.07
2017-06-20T07:35:45.318Z,9.70
2017-06-20T07:38:11.627Z,13.77
2017-06-20T07:40:38.072Z,11.30
2017-06-20T07:43:04.454Z,11.90
2017-06-20T07:45:30.778Z,9.73
2017-06-20T07:47:57.496Z,14.00
2017-06-20T07:50:24.622Z,9.60
2017-06-20T07:52:50.969Z,7.50
2017-06-20T07:55:18.082Z,9.60
2017-06-20T07:57:44.465Z,10.13
2017-06-20T08:00:11.280Z,7.40
2017-06-20T08:02:37.646Z,10.43
2017-06-20T08:05:04.043Z,8.00
2017-06-20T08:07:31.124Z,12.20
2017-06-20T08:09:57.469Z,12.30
2017-06-20T08:12:24.129Z,10.67
2017-06-20T08:14:50.489Z,16.13
2017-06-20T08:17:16.876Z,16.73
2017-06-20T08:19:43.377Z,8.40
2017-06-20T08:22:10.733Z,10.67
2017-06-20T08:24:37.451Z,6.77
2017-06-20T08:27:03.788Z,6.87
2017-06-20T08:29:30.178Z,13.00
2017-06-20T08:31:56.545Z,8.27
2017-06-20T08:34:22.888Z,7.53
2017-06-20T08:36:49.503Z,8.40
2017-06-20T08:39:18.792Z,8.40
2017-06-20T08:41:45.872Z,14.03
2017-06-20T08:44:12.310Z,6.37
2017-06-20T08:46:38.677Z,6.73
2017-06-20T08:49:05.327Z,6.80
2017-06-20T08:51:32.428Z,6.57
2017-06-20T08:53:58.797Z,8.53
2017-06-20T08:56:25.933Z,8.67
2017-06-20T08:58:52.270Z,10.77
2017-06-20T09:01:18.919Z,7.13
2017-06-20T09:03:46.033Z,7.53
2017-06-20T09:06:12.364Z,7.87
2017-06-20T09:08:38.717Z,10.10
2017-06-20T09:11:05.074Z,8.10
2017-06-20T09:13:31.787Z,6.83
2017-06-20T09:15:58.200Z,11.27
2017-06-20T09:18:24.542Z,7.33
2017-06-20T09:20:51.009Z,11.33
2017-06-20T09:23:17.417Z,7.57
2017-06-20T09:25:45.009Z,8.10
2017-06-20T09:28:11.351Z,14.07
2017-06-20T09:30:37.693Z,7.87
2017-06-20T09:33:04.070Z,7.10
2017-06-20T09:35:31.164Z,7.87
2017-06-20T09:37:59.344Z,6.30
2017-06-20T09:40:29.480Z,7.50
2017-06-20T09:42:56.038Z,8.53
2017-06-20T09:45:27.377Z,9.30
2017-06-20T09:47:54.469Z,9.03
2017-06-20T09:50:21.137Z,11.07
2017-06-20T09:52:47.497Z,9.67
2017-06-20T09:55:25.372Z,7.10
2017-06-20T09:57:51.792Z,9.60
2017-06-20T10:00:18.188Z,13.53
2017-06-20T10:02:44.550Z,15.43
2017-06-20T10:05:10.908Z,9.23
2017-06-20T10:07:37.583Z,8.83
2017-06-20T10:10:03.917Z,7.77
2017-06-20T10:12:30.303Z,9.40
2017-06-20T10:14:57.429Z,8.93
2017-06-20T10:17:23.775Z,9.57
2017-06-20T10:19:50.777Z,13.27
2017-06-20T10:22:17.141Z,8.67
2017-06-20T10:24:43.474Z,9.50
2017-06-20T10:27:09.822Z,8.87
2017-06-20T10:29:36.933Z,12.60
2017-06-20T10:32:03.599Z,10.50
2017-06-20T10:34:29.991Z,6.50
2017-06-20T10:36:56.388Z,7.00
2017-06-20T10:39:22.754Z,7.73
2017-06-20T10:41:49.101Z,8.80
2017-06-20T10:44:15.753Z,6.60
2017-06-20T10:46:42.092Z,10.10
2017-06-20T10:49:08.453Z,8.00
2017-06-20T10:51:34.799Z,9.83
2017-06-20T10:54:01.199Z,8.40
2017-06-20T10:56:27.785Z,10.17
2017-06-20T10:58:54.133Z,8.63
2017-06-20T11:01:20.468Z,8.17
2017-06-20T11:03:46.844Z,10.53
2017-06-20T11:06:13.207Z,10.37
2017-06-20T11:08:39.809Z,8.07
2017-06-20T11:11:06.220Z,19.87
2017-06-20T11:13:32.562Z,11.37
2017-06-20T11:15:58.931Z,16.43
2017-06-20T11:18:25.348Z,9.93
2017-06-20T11:20:51.985Z,10.30
2017-06-20T11:23:18.323Z,11.70
2017-06-20T11:25:44.668Z,18.20
2017-06-20T11:28:11.048Z,8.70
2017-06-20T11:30:37.398Z,10.67
2017-06-20T11:33:04.059Z,10.33
2017-06-20T11:35:30.427Z,10.77
2017-06-20T11:37:56.798Z,9.53
2017-06-20T11:40:23.371Z,14.27
2017-06-20T11:42:49.853Z,11.73
2017-06-20T11:45:16.522Z,9.20
2017-06-20T11:47:42.978Z,6.77
2017-06-20T11:50:09.364Z,11.37
2017-06-20T11:52:35.755Z,10.03
2017-06-20T11:55:02.070Z,8.10
2017-06-20T11:57:29.657Z,12.03
2017-06-20T11:59:56.130Z,10.27
2017-06-20T12:02:22.535Z,8.87
2017-06-20T12:04:48.914Z,10.07
2017-06-20T12:07:16.008Z,10.30
2017-06-20T12:09:42.669Z,8.87
2017-06-20T12:12:09.050Z,8.00
2017-06-20T12:14:35.392Z,8.60
2017-06-20T12:17:01.767Z,10.90
2017-06-20T12:19:28.191Z,7.40
2017-06-20T12:21:54.579Z,13.60
2017-06-20T12:24:20.929Z,8.50
2017-06-20T12:26:47.533Z,14.40
2017-06-20T12:29:13.913Z,9.87
2017-06-20T12:31:40.276Z,17.43
2017-06-20T12:34:07.443Z,8.90
2017-06-20T12:36:33.869Z,9.63
2017-06-20T12:39:00.599Z,10.53
2017-06-20T12:41:26.976Z,9.47
2017-06-20T12:43:53.343Z,7.57
2017-06-20T12:46:20.431Z,7.80
2017-06-20T12:48:46.773Z,11.63
2017-06-20T12:51:13.144Z,11.83
2017-06-20T12:53:40.247Z,10.23
2017-06-20T12:56:06.578Z,11.07
2017-06-20T12:58:32.959Z,11.77
2017-06-20T13:00:59.295Z,13.03
2017-06-20T13:03:26.006Z,13.27
2017-06-20T13:05:52.349Z,12.70
2017-06-20T13:08:18.698Z,8.33
2017-06-20T13:10:45.051Z,8.43
2017-06-20T13:13:11.406Z,9.93
2017-06-20T13:15:38.055Z,9.77
2017-06-20T13:18:04.444Z,14.23
2017-06-20T13:20:30.880Z,10.00
2017-06-20T13:22:57.241Z,7.70
2017-06-20T13:25:23.659Z,9.00
2017-06-20T13:27:50.294Z,7.50
2017-06-20T13:30:16.648Z,11.33
2017-06-20T13:32:42.990Z,7.27
2017-06-20T13:35:09.401Z,7.77
2017-06-20T13:37:35.778Z,9.07
2017-06-20T13:40:02.172Z,8.93
2017-06-20T13:42:28.517Z,8.17
2017-06-20T13:44:55.213Z,7.50
2017-06-20T13:47:21.569Z,7.30
2017-06-20T13:49:47.951Z,12.60
2017-06-20T13:52:14.311Z,8.50
2017-06-20T13:54:40.700Z,5.60
2017-06-20T13:57:07.141Z,8.20
2017-06-20T13:59:33.506Z,9.67
2017-06-20T14:02:00.159Z,7.00
2017-06-20T14:04:26.544Z,9.03
2017-06-20T14:06:52.895Z,8.83
2017-06-20T14:09:19.320Z,15.23
2017-06-20T14:11:45.641Z,9.77
2017-06-20T14:14:12.087Z,15.43
2017-06-20T14:16:38.439Z,12.20
2017-06-20T14:19:05.288Z,14.80
2017-06-20T14:21:32.445Z,9.70
2017-06-20T14:23:59.524Z,16.87
2017-06-20T14:26:25.900Z,9.93
2017-06-20T14:28:53.007Z,11.00
2017-06-20T14:31:19.358Z,14.73
2017-06-20T14:33:45.735Z,14.63
2017-06-20T14:36:12.440Z,18.37
2017-06-20T14:38:38.811Z,8.70
2017-06-20T14:41:05.223Z,12.20
2017-06-20T14:43:32.647Z,7.40
2017-06-20T14:46:00.482Z,17.77
2017-06-20T14:48:27.154Z,24.50
2017-06-20T14:50:53.559Z,11.23
2017-06-20T14:53:19.933Z,12.50
2017-06-20T14:55:46.338Z,10.47
2017-06-20T14:58:12.744Z,11.37
2017-06-20T15:00:39.117Z,11.40
2017-06-20T15:03:05.515Z,9.83
2017-06-20T15:05:32.218Z,12.13
2017-06-20T15:07:58.570Z,9.20
2017-06-20T15:10:24.960Z,13.97
2017-06-20T15:12:52.080Z,13.30
2017-06-20T15:15:18.435Z,11.03
2017-06-20T15:17:45.556Z,6.70
2017-06-20T15:20:12.049Z,9.80
2017-06-20T15:22:38.623Z,7.63
2017-06-20T15:25:04.958Z,11.43
2017-06-20T15:27:31.310Z,11.50
2017-06-20T15:29:57.655Z,7.33
2017-06-20T15:32:24.005Z,6.70
2017-06-20T15:34:50.672Z,9.47
2017-06-20T15:37:16.999Z,7.10
2017-06-20T15:39:43.370Z,7.60
2017-06-20T15:42:09.762Z,9.80
2017-06-20T15:44:36.352Z,7.40
2017-06-20T15:47:02.708Z,6.57
2017-06-20T15:49:29.055Z,8.60
2017-06-20T15:51:55.773Z,10.83
2017-06-20T15:54:22.116Z,8.13
2017-06-20T15:56:48.476Z,7.20
2017-06-20T15:59:15.612Z,9.00
2017-06-20T16:01:41.926Z,10.57
2017-06-20T16:04:08.296Z,9.70
2017-06-20T16:06:34.680Z,10.87
2017-06-20T16:09:01.062Z,7.17
2017-06-20T16:11:27.419Z,7.13
2017-06-20T16:13:53.752Z,11.13
2017-06-20T16:16:20.108Z,9.30
2017-06-20T16:18:46.477Z,16.50
2017-06-20T16:21:13.186Z,10.10
2017-06-20T16:23:40.265Z,11.93
2017-06-20T16:26:06.631Z,6.90
2017-06-20T16:28:32.991Z,7.50
2017-06-20T16:30:59.364Z,10.37
2017-06-20T16:33:25.698Z,6.77
2017-06-20T16:35:52.076Z,7.97
2017-06-20T16:38:18.658Z,8.40
2017-06-20T16:40:45.150Z,19.47
2017-06-20T16:43:11.498Z,13.13
2017-06-20T16:45:38.626Z,10.10
2017-06-20T16:48:05.980Z,9.00
2017-06-20T16:50:32.369Z,10.17
2017-06-20T16:52:58.756Z,12.90
2017-06-20T16:55:25.478Z,9.43
2017-06-20T16:57:51.829Z,9.43
2017-06-20T17:00:18.184Z,8.90
2017-06-20T17:02:52.197Z,7.70
2017-06-20T17:05:18.631Z,6.90
2017-06-20T17:07:44.988Z,9.40
2017-06-20T17:10:11.343Z,12.43
2017-06-20T17:12:38.670Z,8.77
2017-06-20T17:15:05.034Z,9.23
2017-06-20T17:17:31.403Z,10.97
2017-06-20T17:19:57.869Z,8.73
2017-06-20T17:22:24.226Z,7.30
2017-06-20T17:24:51.325Z,13.37
2017-06-20T17:27:17.743Z,8.73
2017-06-20T17:29:44.312Z,12.37
2017-06-20T17:32:10.702Z,10.73
2017-06-20T17:34:37.104Z,10.30
2017-06-20T17:37:03.497Z,10.37
2017-06-20T17:39:29.913Z,10.73
2017-06-20T17:41:56.316Z,8.33
2017-06-20T17:44:23.474Z,12.83
2017-06-20T17:46:50.133Z,10.37
2017-06-20T17:49:16.460Z,9.60
2017-06-20T17:51:42.782Z,11.30
2017-06-20T17:54:09.197Z,9.87
2017-06-20T17:56:35.580Z,8.23
2017-06-20T17:59:01.954Z,8.40
2017-06-20T18:01:28.326Z,14.37
2017-06-20T18:03:54.924Z,15.83
2017-06-20T18:06:21.322Z,17.07
2017-06-20T18:08:47.707Z,9.03
2017-06-20T18:11:14.066Z,12.23
2017-06-20T18:13:40.439Z,22.27
2017-06-20T18:16:06.780Z,10.53
2017-06-20T18:18:33.163Z,12.97
2017-06-20T18:20:59.578Z,13.93
2017-06-20T18:23:25.984Z,11.00
2017-06-20T18:25:52.321Z,15.57
2017-06-20T18:28:19.000Z,15.27
2017-06-20T18:30:46.082Z,8.20
2017-06-20T18:33:12.420Z,9.50
2017-06-20T18:35:38.790Z,13.53
2017-06-20T18:38:05.166Z,26.03
2017-06-20T18:40:31.539Z,11.67
2017-06-20T18:43:04.806Z,13.90
2017-06-20T18:45:31.456Z,50.77
2017-06-20T18:47:57.819Z,66.90
2017-06-20T18:50:24.935Z,50.10
2017-06-20T18:52:51.340Z,73.63
2017-06-20T18:55:17.708Z,44.83
2017-06-20T18:57:44.837Z,24.87
2017-06-20T19:00:11.234Z,24.10
2017-06-20T19:02:37.841Z,16.83
2017-06-20T19:05:04.920Z,16.77
2017-06-20T19:07:31.296Z,10.77
2017-06-20T19:09:57.661Z,10.33
2017-06-20T19:12:24.022Z,16.27
2017-06-20T19:14:50.458Z,9.57
2017-06-20T19:17:16.833Z,12.70
2017-06-20T19:19:44.299Z,9.07
2017-06-20T19:22:10.656Z,11.83
2017-06-20T19:24:37.057Z,15.40
2017-06-20T19:27:04.203Z,11.10
2017-06-20T19:29:31.311Z,12.93
2017-06-20T19:31:57.715Z,10.27
2017-06-20T19:34:24.106Z,15.13
2017-06-20T19:36:50.824Z,13.23
2017-06-20T19:39:17.182Z,9.70
2017-06-20T19:41:43.545Z,9.70
2017-06-20T19:44:09.992Z,9.63
2017-06-20T19:46:36.339Z,9.50
2017-06-20T19:49:03.002Z,14.83
2017-06-20T19:51:29.371Z,8.87
2017-06-20T19:53:55.765Z,16.80
2017-06-20T19:56:22.176Z,17.63
2017-06-20T19:58:48.610Z,18.40
2017-06-20T20:01:15.968Z,11.00
2017-06-20T20:03:42.369Z,11.17
2017-06-20T20:06:08.717Z,14.93
2017-06-20T20:08:35.144Z,10.00
2017-06-20T20:11:01.529Z,13.80
2017-06-20T20:13:27.889Z,12.40
2017-06-20T20:15:54.271Z,12.40
2017-06-20T20:18:20.972Z,9.77
2017-06-20T20:20:47.481Z,15.33
2017-06-20T20:23:13.860Z,11.03
2017-06-20T20:25:40.263Z,11.27
2017-06-20T20:28:06.627Z,10.70
2017-06-20T20:30:32.967Z,10.43
2017-06-20T20:32:59.368Z,10.20
2017-06-20T20:35:26.110Z,10.23
2017-06-20T20:37:53.227Z,12.23
2017-06-20T20:40:19.615Z,10.47
2017-06-20T20:42:45.978Z,11.00
2017-06-20T20:45:12.327Z,9.20
2017-06-20T20:47:38.716Z,15.73
2017-06-20T20:50:05.091Z,12.67
2017-06-20T20:52:31.811Z,11.90
2017-06-20T20:54:58.160Z,12.10
2017-06-20T20:57:24.495Z,14.97
2017-06-20T20:59:50.862Z,12.53
2017-06-20T21:02:17.219Z,18.70
2017-06-20T21:04:43.576Z,8.10
2017-06-20T21:07:09.986Z,12.73
2017-06-20T21:09:36.639Z,35.73
2017-06-20T21:12:03.018Z,12.10
2017-06-20T21:14:29.396Z,11.70
2017-06-20T21:16:55.744Z,16.63
2017-06-20T21:19:22.924Z,13.23
2017-06-20T21:21:49.215Z,12.73
2017-06-20T21:24:15.523Z,15.80
2017-06-20T21:26:42.175Z,19.33
2017-06-20T21:29:08.515Z,14.70
2017-06-20T21:31:34.950Z,13.33
2017-06-20T21:34:02.124Z,17.40
2017-06-20T21:36:28.531Z,18.17
2017-06-20T21:38:55.616Z,14.93
2017-06-20T21:41:21.995Z,14.20
2017-06-20T21:43:48.598Z,15.13
2017-06-20T21:46:14.930Z,16.90
2017-06-20T21:48:41.267Z,14.80
2017-06-20T21:51:07.630Z,15.43
2017-06-20T21:53:34.724Z,16.23
2017-06-20T21:56:01.110Z,14.30
2017-06-20T21:58:28.331Z,13.30
2017-06-20T22:00:54.973Z,15.37
2017-06-20T22:03:21.339Z,12.70
2017-06-20T22:05:47.668Z,15.93
2017-06-20T22:08:14.061Z,18.90
2017-06-20T22:10:40.653Z,13.10
2017-06-20T22:13:07.059Z,17.00
2017-06-20T22:15:35.935Z,14.73
2017-06-20T22:18:02.768Z,15.33
2017-06-20T22:20:29.218Z,14.90
2017-06-20T22:22:55.981Z,15.07
2017-06-20T22:25:22.378Z,22.30
2017-06-20T22:27:49.477Z,12.87
2017-06-20T22:30:15.854Z,15.40
2017-06-20T22:32:42.230Z,12.40
2017-06-20T22:35:08.827Z,14.47
2017-06-20T22:37:35.922Z,12.83
2017-06-20T22:40:03.648Z,15.97
2017-06-20T22:42:30.905Z,12.73
2017-06-20T22:44:57.318Z,15.47
2017-06-20T22:47:24.242Z,17.83
2017-06-20T22:49:50.628Z,13.50
2017-06-20T22:52:17.306Z,13.70
2017-06-20T22:54:44.431Z,13.87
2017-06-20T22:57:10.764Z,13.23
2017-06-20T22:59:37.097Z,13.17
2017-06-20T23:02:03.440Z,14.20
2017-06-20T23:04:30.840Z,19.00
2017-06-20T23:06:57.168Z,14.53
2017-06-20T23:09:23.528Z,17.43
2017-06-20T23:11:49.889Z,18.27
2017-06-20T23:14:16.273Z,16.37
2017-06-20T23:16:42.630Z,18.00
2017-06-20T23:19:10.738Z,20.37
2017-06-20T23:21:37.113Z,16.03
2017-06-20T23:24:03.521Z,17.90
2017-06-20T23:26:29.855Z,16.33
2017-06-20T23:28:56.201Z,14.67
2017-06-20T23:31:22.587Z,18.97
2017-06-20T23:33:48.947Z,16.57
2017-06-20T23:36:15.668Z,16.80
2017-06-20T23:38:42.013Z,16.30
2017-06-20T23:41:08.342Z,19.27
2017-06-20T23:43:34.739Z,21.03
2017-06-20T23:46:01.087Z,33.50
2017-06-20T23:48:27.775Z,23.40
2017-06-20T23:50:54.131Z,28.40
2017-06-20T23:53:21.205Z,28.43
2017-06-20T23:55:47.632Z,21.17
2017-06-20T23:58:14.030Z,13.73
